Time;durP1;ratioP1;P1;durP2;ratioP2;P2;SDS_P1;SDS_P2;PMS_P1;PMS_P2;Temp;Humidity;BMP_temperature;BMP_pressure;BME280_temperature;BME280_humidity;BME280_pressure;Samples;Min_cycle;Max_cycle;Signal;HPM_P1;HPM_P2
2021/09/16 00:00:07;;;;;;;3.50;2.17;;;18.90;99.90;19.00;100147.00;;;;4977162;28;106512;-64
2021/09/16 00:02:32;;;;;;;4.55;2.38;;;18.80;99.90;19.00;100143.00;;;;4978432;28;87919;-64
2021/09/16 00:04:58;;;;;;;3.35;2.55;;;19.20;99.90;19.00;100153.00;;;;4977376;28;118109;-63
2021/09/16 00:07:24;;;;;;;2.78;2.10;;;18.90;99.90;19.00;100155.00;;;;4975733;28;116244;-63
2021/09/16 00:09:49;;;;;;;4.50;2.65;;;18.90;99.90;19.00;100159.00;;;;4976995;28;109325;-62
2021/09/16 00:12:15;;;;;;;4.15;2.15;;;18.90;99.90;19.00;100149.00;;;;4976914;28;110190;-63
2021/09/16 00:14:42;;;;;;;3.63;2.40;;;18.90;99.90;19.00;100152.00;;;;4978379;28;87970;-63
2021/09/16 00:17:07;;;;;;;3.00;1.83;;;18.80;99.90;19.00;100146.00;;;;4975945;28;116981;-64
2021/09/16 00:19:33;;;;;;;2.42;1.85;;;18.70;99.90;18.90;100145.00;;;;4978154;28;88192;-62
2021/09/16 00:21:59;;;;;;;7.63;2.22;;;18.80;99.90;19.00;100149.00;;;;4977451;28;93089;-64
2021/09/16 00:24:25;;;;;;;1.88;1.73;;;18.70;99.90;18.90;100147.00;;;;4976329;28;119479;-63
2021/09/16 00:26:50;;;;;;;2.17;1.98;;;18.80;99.90;18.90;100154.00;;;;4975922;28;118608;-62
2021/09/16 00:29:16;;;;;;;2.10;1.98;;;18.80;99.90;18.90;100148.00;;;;4977000;28;111913;-63
2021/09/16 00:31:42;;;;;;;3.25;2.10;;;18.70;99.90;18.90;100150.00;;;;4977026;28;109025;-63
2021/09/16 00:34:08;;;;;;;6.03;2.60;;;18.80;99.90;18.90;100155.00;;;;4977930;28;87941;-62
2021/09/16 00:36:34;;;;;;;3.08;2.15;;;18.70;99.90;18.90;100149.00;;;;4976985;28;113140;-62
2021/09/16 00:38:59;;;;;;;3.25;2.67;;;18.70;99.90;18.90;100158.00;;;;4976996;28;87847;-63
2021/09/16 00:41:28;;;;;;;2.50;1.77;;;18.70;99.90;18.90;100155.00;;;;4976480;28;108589;-61
2021/09/16 00:43:55;;;;;;;2.88;2.45;;;18.70;99.90;18.90;100160.00;;;;4977441;28;88597;-61
2021/09/16 00:46:21;;;;;;;2.63;2.42;;;18.70;99.90;18.90;100160.00;;;;4977641;28;88212;-63
2021/09/16 00:48:47;;;;;;;3.17;2.45;;;18.70;99.90;18.90;100160.00;;;;4977067;28;88627;-63
2021/09/16 00:51:12;;;;;;;3.08;2.03;;;18.70;99.90;18.90;100158.00;;;;4977504;28;87785;-63
2021/09/16 00:53:39;;;;;;;2.17;1.80;;;18.70;99.90;18.90;100170.00;;;;4977140;28;87845;-63
2021/09/16 00:56:08;;;;;;;3.00;2.10;;;18.70;99.90;18.90;100154.00;;;;4978113;28;87893;-64
2021/09/16 00:58:40;;;;;;;2.90;2.10;;;18.70;99.90;18.90;100174.00;;;;4977772;28;87692;-63
2021/09/16 01:01:07;;;;;;;3.53;2.05;;;18.70;99.90;18.90;100169.00;;;;4977263;28;87688;-63
2021/09/16 01:03:33;;;;;;;3.47;2.53;;;18.80;99.90;18.90;100168.00;;;;4976135;28;88326;-63
2021/09/16 01:06:00;;;;;;;2.50;1.92;;;18.80;99.90;18.90;100166.00;;;;4975864;28;88009;-64
2021/09/16 01:08:26;;;;;;;4.32;2.60;;;18.80;99.90;18.90;100162.00;;;;4974233;28;110097;-63
2021/09/16 01:10:52;;;;;;;2.92;2.00;;;18.80;99.90;19.00;100172.00;;;;4973252;28;108974;-63
2021/09/16 01:13:18;;;;;;;2.35;2.08;;;18.80;99.90;19.00;100164.00;;;;4973636;28;89602;-63
2021/09/16 01:15:45;;;;;;;2.45;2.15;;;18.80;99.90;19.00;100163.00;;;;4975978;28;118888;-64
2021/09/16 01:18:11;;;;;;;2.42;2.22;;;18.80;99.90;19.00;100158.00;;;;4976407;28;87830;-63
2021/09/16 01:20:38;;;;;;;3.90;2.53;;;18.80;99.90;19.00;100161.00;;;;4977142;28;87952;-64
2021/09/16 01:23:04;;;;;;;4.72;2.95;;;18.80;99.90;19.00;100162.00;;;;4975859;28;99565;-63
2021/09/16 01:25:32;;;;;;;4.75;2.75;;;18.80;99.90;19.00;100164.00;;;;4974344;28;88805;-64
2021/09/16 01:28:00;;;;;;;4.82;2.30;;;18.80;99.90;19.00;100167.00;;;;4977047;28;87858;-63
2021/09/16 01:30:27;;;;;;;3.58;2.40;;;18.80;99.90;19.00;100165.00;;;;4977338;28;87177;-63
2021/09/16 01:32:55;;;;;;;2.72;2.20;;;18.80;99.90;19.00;100166.00;;;;4975757;28;95597;-63
2021/09/16 01:35:22;;;;;;;4.30;2.42;;;18.80;99.90;19.00;100164.00;;;;4977034;28;88264;-63
2021/09/16 01:37:48;;;;;;;4.32;2.67;;;18.80;99.90;19.00;100166.00;;;;4976558;28;88867;-64
2021/09/16 01:40:14;;;;;;;4.90;3.05;;;18.80;99.90;18.90;100163.00;;;;4976055;28;108608;-63
2021/09/16 01:42:43;;;;;;;4.05;2.58;;;18.80;99.90;18.90;100163.00;;;;4976091;28;89632;-63
2021/09/16 01:45:19;;;;;;;8.90;2.80;;;18.70;99.90;18.90;100159.00;;;;4976580;28;100431;-63
2021/09/16 01:47:46;;;;;;;3.67;2.80;;;18.70;99.90;18.90;100164.00;;;;4976419;28;87608;-63
2021/09/16 01:50:14;;;;;;;2.40;2.20;;;18.70;99.90;18.90;100161.00;;;;4977157;28;92037;-61
2021/09/16 01:52:40;;;;;;;5.03;3.47;;;18.70;99.90;18.80;100171.00;;;;4974301;28;88033;-62
2021/09/16 01:55:07;;;;;;;4.30;3.20;;;18.70;99.90;18.80;100171.00;;;;4976191;28;99208;-62
2021/09/16 01:57:33;;;;;;;7.57;3.53;;;18.70;99.90;18.80;100167.00;;;;4975880;28;94736;-62
2021/09/16 02:00:00;;;;;;;4.18;2.97;;;18.60;99.90;18.80;100173.00;;;;4976319;28;87807;-63
2021/09/16 02:02:26;;;;;;;4.53;3.05;;;18.60;99.90;18.80;100173.00;;;;4973367;28;89379;-62
2021/09/16 02:04:52;;;;;;;4.03;2.92;;;18.60;99.90;18.80;100174.00;;;;4975485;28;98434;-63
2021/09/16 02:07:17;;;;;;;3.67;3.10;;;18.60;99.90;18.80;100178.00;;;;4975842;28;110018;-62
2021/09/16 02:09:43;;;;;;;4.63;3.38;;;18.60;99.90;18.80;100180.00;;;;4975136;28;109114;-62
2021/09/16 02:12:09;;;;;;;6.80;3.17;;;18.60;99.90;18.70;100176.00;;;;4976282;28;88279;-62
2021/09/16 02:14:35;;;;;;;7.05;3.95;;;18.60;99.90;18.70;100173.00;;;;4976252;28;88917;-63
2021/09/16 02:17:01;;;;;;;4.93;3.40;;;18.60;99.90;18.70;100174.00;;;;4975644;28;100602;-63
2021/09/16 02:19:28;;;;;;;4.15;2.90;;;18.60;99.90;18.70;100171.00;;;;4976142;28;90959;-63
2021/09/16 02:21:54;;;;;;;3.40;3.10;;;18.60;99.90;18.70;100171.00;;;;4976357;28;88014;-63
2021/09/16 02:24:20;;;;;;;4.45;3.85;;;18.60;99.90;18.70;100168.00;;;;4974758;28;116368;-63
2021/09/16 02:26:46;;;;;;;5.30;3.90;;;18.50;99.90;18.70;100170.00;;;;4975450;28;88838;-63
2021/09/16 02:29:11;;;;;;;4.45;3.60;;;18.50;99.90;18.70;100173.00;;;;4975401;28;108131;-63
2021/09/16 02:31:37;;;;;;;4.43;3.63;;;18.50;99.90;18.70;100176.00;;;;4974234;28;118345;-62
2021/09/16 02:34:03;;;;;;;3.72;3.20;;;18.50;99.90;18.70;100174.00;;;;4975352;28;101006;-62
2021/09/16 02:36:29;;;;;;;5.50;3.88;;;18.50;99.90;18.70;100183.00;;;;4974898;28;111584;-64
2021/09/16 02:38:54;;;;;;;4.47;3.50;;;18.50;99.90;18.60;100180.00;;;;4974926;28;87753;-64
2021/09/16 02:41:21;;;;;;;5.15;3.63;;;18.50;99.90;18.70;100188.00;;;;4975036;28;117467;-64
2021/09/16 02:43:47;;;;;;;4.45;3.45;;;18.50;99.90;18.70;100179.00;;;;4975744;28;87203;-64
2021/09/16 02:46:13;;;;;;;4.00;3.33;;;18.50;99.90;18.70;100176.00;;;;4976301;28;87672;-64
2021/09/16 02:48:39;;;;;;;4.68;3.65;;;18.50;99.90;18.70;100185.00;;;;4956362;28;93616;-64
2021/09/16 02:51:06;;;;;;;5.22;3.70;;;18.50;99.90;18.70;100179.00;;;;4975029;28;89827;-64
2021/09/16 02:53:32;;;;;;;6.93;4.00;;;18.50;99.90;18.70;100186.00;;;;4975548;28;88618;-64
2021/09/16 02:55:58;;;;;;;5.40;3.58;;;18.50;99.90;18.70;100179.00;;;;4976594;28;87965;-64
2021/09/16 02:58:24;;;;;;;4.72;4.05;;;18.50;99.90;18.70;100191.00;;;;4974632;28;98719;-64
2021/09/16 03:00:50;;;;;;;6.60;3.90;;;18.50;99.90;18.70;100185.00;;;;4974277;28;118879;-63
2021/09/16 03:03:16;;;;;;;5.88;3.92;;;18.50;99.90;18.70;100183.00;;;;4975616;28;87900;-63
2021/09/16 03:05:41;;;;;;;4.47;3.88;;;18.50;99.90;18.70;100186.00;;;;4975217;28;110191;-63
2021/09/16 03:08:07;;;;;;;4.82;3.25;;;18.50;99.90;18.70;100189.00;;;;4975762;28;87130;-63
2021/09/16 03:10:33;;;;;;;7.32;4.18;;;18.50;99.90;18.70;100193.00;;;;4974300;28;118369;-63
2021/09/16 03:12:59;;;;;;;7.00;4.25;;;18.40;99.90;18.70;100183.00;;;;4973878;28;117482;-64
2021/09/16 03:15:24;;;;;;;3.85;3.47;;;18.60;99.90;18.70;100186.00;;;;4974147;28;109392;-63
2021/09/16 03:17:50;;;;;;;4.95;3.70;;;18.50;99.90;18.70;100191.00;;;;4974469;28;96620;-63
2021/09/16 03:20:16;;;;;;;5.28;3.83;;;18.50;99.90;18.70;100189.00;;;;4974796;28;117515;-63
2021/09/16 03:22:42;;;;;;;5.97;3.95;;;18.50;99.90;18.70;100196.00;;;;4974447;28;96901;-64
2021/09/16 03:25:10;;;;;;;4.53;3.78;;;18.50;99.90;18.70;100196.00;;;;4975476;28;87886;-63
2021/09/16 03:27:36;;;;;;;4.60;4.00;;;18.50;99.90;18.60;100196.00;;;;4975837;28;87985;-63
2021/09/16 03:30:07;;;;;;;5.88;4.32;;;18.50;99.90;18.60;100196.00;;;;4974695;28;87824;-63
2021/09/16 03:32:33;;;;;;;10.82;4.82;;;18.50;99.90;18.60;100207.00;;;;4969006;28;88788;-63
2021/09/16 03:34:58;;;;;;;8.48;5.15;;;18.50;99.90;18.60;100197.00;;;;4964034;28;110839;-63
2021/09/16 03:37:24;;;;;;;7.82;4.13;;;18.50;99.90;18.60;100206.00;;;;4974565;28;108461;-63
2021/09/16 03:39:50;;;;;;;10.40;5.40;;;18.50;99.90;18.60;100193.00;;;;4973487;28;118339;-64
2021/09/16 03:42:15;;;;;;;8.13;5.10;;;18.50;99.90;18.60;100198.00;;;;4975153;28;118569;-63
2021/09/16 03:44:41;;;;;;;7.32;5.22;;;18.50;99.90;18.60;100193.00;;;;4977960;28;104196;-63
2021/09/16 03:47:07;;;;;;;8.25;5.55;;;18.50;99.90;18.60;100197.00;;;;4978898;28;92551;-62
2021/09/16 03:49:38;;;;;;;6.60;5.10;;;18.50;99.90;18.60;100194.00;;;;4978220;28;87918;-64
2021/09/16 03:52:05;;;;;;;8.43;5.75;;;18.50;99.90;18.60;100188.00;;;;4978798;28;87833;-63
2021/09/16 03:54:31;;;;;;;7.05;5.43;;;18.50;99.90;18.60;100192.00;;;;4978254;28;87913;-63
2021/09/16 03:56:57;;;;;;;8.48;5.72;;;18.50;99.90;18.60;100185.00;;;;4977546;28;109058;-64
2021/09/16 03:59:22;;;;;;;9.98;5.75;;;18.50;99.90;18.60;100195.00;;;;4978055;28;87747;-63
2021/09/16 04:01:48;;;;;;;9.07;6.28;;;18.50;99.90;18.60;100195.00;;;;4977540;28;117680;-63
2021/09/16 04:04:14;;;;;;;9.75;6.75;;;18.50;99.90;18.60;100191.00;;;;4974538;28;110029;-64
2021/09/16 04:06:39;;;;;;;9.07;6.10;;;18.50;99.90;18.60;100191.00;;;;4977288;28;102229;-63
2021/09/16 04:09:05;;;;;;;11.25;7.10;;;18.50;99.90;18.60;100197.00;;;;4976123;28;117798;-63
2021/09/16 04:11:31;;;;;;;10.10;7.50;;;18.50;99.90;18.60;100216.00;;;;4977573;28;88076;-62
2021/09/16 04:13:56;;;;;;;10.93;6.47;;;18.40;99.90;18.60;100199.00;;;;4976736;28;106127;-63
2021/09/16 04:16:22;;;;;;;13.13;7.30;;;18.40;99.90;18.60;100199.00;;;;4977631;28;108552;-64
2021/09/16 04:18:48;;;;;;;11.55;7.97;;;18.40;99.90;18.50;100210.00;;;;4976577;28;118242;-63
2021/09/16 04:21:13;;;;;;;9.85;6.55;;;18.40;99.90;18.50;100202.00;;;;4977552;28;118112;-63
2021/09/16 04:23:39;;;;;;;11.65;7.03;;;18.40;99.90;18.50;100200.00;;;;4977654;28;87666;-62
2021/09/16 04:26:05;;;;;;;9.90;7.32;;;18.40;99.90;18.50;100213.00;;;;4977256;28;99180;-63
2021/09/16 04:28:30;;;;;;;10.48;7.63;;;18.40;99.90;18.50;100210.00;;;;4976012;28;118225;-64
2021/09/16 04:30:56;;;;;;;14.73;7.75;;;18.40;99.90;18.50;100208.00;;;;4976472;28;117409;-62
2021/09/16 04:33:22;;;;;;;10.70;7.55;;;18.40;99.90;18.50;100212.00;;;;4976459;28;110259;-63
2021/09/16 04:35:48;;;;;;;10.38;7.00;;;18.40;99.90;18.50;100210.00;;;;4976967;28;109099;-63
2021/09/16 04:38:16;;;;;;;9.77;7.50;;;18.40;99.90;18.50;100219.00;;;;4976273;28;116635;-62
2021/09/16 04:40:43;;;;;;;11.77;8.23;;;18.40;99.90;18.50;100214.00;;;;4977221;28;88256;-63
2021/09/16 04:43:09;;;;;;;11.73;8.02;;;18.40;99.90;18.50;100220.00;;;;4977016;28;94891;-63
2021/09/16 04:45:35;;;;;;;12.55;7.53;;;18.30;99.90;18.50;100218.00;;;;4978087;28;91079;-63
2021/09/16 04:48:01;;;;;;;14.80;7.97;;;18.30;99.90;18.40;100210.00;;;;4977167;28;87855;-64
2021/09/16 04:50:27;;;;;;;13.57;8.45;;;18.30;99.90;18.40;100219.00;;;;4976056;28;116884;-62
2021/09/16 04:52:53;;;;;;;12.82;7.95;;;18.50;99.90;18.40;100223.00;;;;4976606;28;88645;-62
2021/09/16 04:55:19;;;;;;;12.43;8.80;;;18.30;99.90;18.40;100230.00;;;;4977010;28;87715;-62
2021/09/16 04:57:45;;;;;;;12.73;8.10;;;18.30;99.90;18.40;100236.00;;;;4975020;28;112630;-62
2021/09/16 05:00:12;;;;;;;12.32;8.40;;;18.30;99.90;18.40;100228.00;;;;4971723;28;87752;-62
2021/09/16 05:02:38;;;;;;;10.95;7.70;;;18.30;99.90;18.40;100234.00;;;;4969118;28;87740;-62
2021/09/16 05:05:06;;;;;;;9.60;8.00;;;18.50;99.90;18.40;100237.00;;;;4967698;28;87648;-62
2021/09/16 05:07:31;;;;;;;13.95;9.15;;;18.30;99.90;18.40;100245.00;;;;4976823;28;94011;-63
2021/09/16 05:09:57;;;;;;;14.27;8.43;;;18.30;99.90;18.40;100245.00;;;;4976370;28;117109;-63
2021/09/16 05:12:23;;;;;;;17.15;9.27;;;18.30;99.90;18.40;100260.00;;;;4976959;28;87679;-64
2021/09/16 05:14:49;;;;;;;13.57;8.70;;;18.40;99.90;18.40;100264.00;;;;4976063;28;108266;-63
2021/09/16 05:17:14;;;;;;;14.55;9.00;;;18.20;99.90;18.40;100260.00;;;;4975387;28;119491;-63
2021/09/16 05:19:40;;;;;;;11.68;8.38;;;18.20;99.90;18.40;100271.00;;;;4976746;28;88680;-63
2021/09/16 05:22:06;;;;;;;12.18;8.65;;;18.60;99.90;18.40;100269.00;;;;4975980;28;110741;-63
2021/09/16 05:24:32;;;;;;;15.18;9.32;;;18.30;99.90;18.40;100274.00;;;;4975823;28;108799;-62
2021/09/16 05:26:58;;;;;;;13.80;9.75;;;18.30;99.90;18.40;100264.00;;;;4976271;28;88819;-62
2021/09/16 05:29:24;;;;;;;15.23;10.45;;;18.20;99.90;18.40;100274.00;;;;4976008;28;100105;-62
2021/09/16 05:31:50;;;;;;;16.50;11.18;;;18.20;99.90;18.40;100269.00;;;;4976081;28;87715;-63
2021/09/16 05:34:16;;;;;;;15.52;10.20;;;18.20;99.90;18.40;100271.00;;;;4975958;28;98616;-62
2021/09/16 05:36:42;;;;;;;13.95;10.73;;;18.20;99.90;18.40;100279.00;;;;4975162;28;116777;-62
2021/09/16 05:39:09;;;;;;;17.48;11.23;;;18.20;99.90;18.40;100275.00;;;;4976130;28;88169;-63
2021/09/16 05:41:35;;;;;;;14.75;11.27;;;18.20;99.90;18.40;100281.00;;;;4975333;28;88765;-63
2021/09/16 05:44:02;;;;;;;14.85;11.57;;;18.20;99.90;18.40;100278.00;;;;4975852;28;87720;-63
2021/09/16 05:46:29;;;;;;;16.38;11.23;;;18.30;99.90;18.40;100287.00;;;;4975275;28;99948;-63
2021/09/16 05:48:55;;;;;;;17.70;12.20;;;18.20;99.90;18.40;100285.00;;;;4960235;28;102857;-65
2021/09/16 05:51:21;;;;;;;21.92;11.38;;;18.30;99.90;18.40;100282.00;;;;4975524;28;97386;-64
2021/09/16 05:53:46;;;;;;;17.40;11.05;;;18.30;99.90;18.40;100283.00;;;;4975445;28;87900;-65
2021/09/16 05:56:12;;;;;;;16.50;10.75;;;18.30;99.90;18.50;100291.00;;;;4975120;28;116855;-63
2021/09/16 05:58:38;;;;;;;19.88;11.48;;;18.30;99.90;18.50;100285.00;;;;4975122;28;108005;-63
2021/09/16 06:01:04;;;;;;;20.42;10.63;;;18.30;99.90;18.50;100287.00;;;;4974564;28;113171;-63
2021/09/16 06:03:29;;;;;;;14.85;10.43;;;18.30;99.90;18.50;100288.00;;;;4974713;28;108189;-63
2021/09/16 06:05:55;;;;;;;18.88;11.25;;;18.40;99.90;18.50;100287.00;;;;4972751;28;117536;-63
2021/09/16 06:08:21;;;;;;;13.75;10.60;;;18.40;99.90;18.50;100276.00;;;;4974617;28;118116;-62
2021/09/16 06:10:46;;;;;;;17.67;11.10;;;18.40;99.90;18.50;100279.00;;;;4974160;28;114290;-63
2021/09/16 06:13:12;;;;;;;16.83;11.43;;;18.40;99.90;18.50;100282.00;;;;4974256;28;107906;-63
2021/09/16 06:15:38;;;;;;;19.27;11.98;;;18.40;99.90;18.50;100288.00;;;;4975495;28;89014;-63
2021/09/16 06:18:04;;;;;;;19.13;12.23;;;18.30;99.90;18.50;100297.00;;;;4978430;28;115519;-62
2021/09/16 06:20:30;;;;;;;15.80;12.40;;;18.40;99.90;18.50;100306.00;;;;4975310;28;87637;-63
2021/09/16 06:22:55;;;;;;;18.80;10.90;;;18.30;99.90;18.40;100304.00;;;;4975069;28;108838;-63
2021/09/16 06:25:21;;;;;;;15.90;10.60;;;18.30;99.90;18.40;100308.00;;;;4974019;28;114996;-63
2021/09/16 06:27:47;;;;;;;18.02;11.85;;;18.30;99.90;18.40;100305.00;;;;4974616;28;88711;-63
2021/09/16 06:30:13;;;;;;;23.13;12.57;;;18.30;99.90;18.40;100306.00;;;;4974553;28;88467;-63
2021/09/16 06:32:39;;;;;;;16.33;11.18;;;18.30;99.90;18.40;100310.00;;;;4973495;28;108535;-63
2021/09/16 06:35:06;;;;;;;19.52;12.27;;;18.30;99.90;18.40;100305.00;;;;4975111;28;100691;-63
2021/09/16 06:37:32;;;;;;;18.27;12.20;;;18.30;99.90;18.40;100303.00;;;;4974730;28;87955;-63
2021/09/16 06:39:58;;;;;;;21.05;12.38;;;18.30;99.90;18.40;100309.00;;;;4973972;28;112300;-62
2021/09/16 06:42:24;;;;;;;15.55;11.50;;;18.30;99.90;18.50;100316.00;;;;4974432;28;108807;-62
2021/09/16 06:44:49;;;;;;;16.42;11.65;;;18.30;99.90;18.50;100312.00;;;;4974714;28;88942;-62
2021/09/16 06:47:15;;;;;;;21.48;13.80;;;18.30;99.90;18.60;100324.00;;;;4974837;28;104377;-62
2021/09/16 06:49:46;;;;;;;18.25;11.60;;;18.40;99.90;18.70;100323.00;;;;4973851;28;112651;-62
2021/09/16 06:52:22;;;;;;;19.58;12.10;;;18.50;99.90;18.80;100322.00;;;;4974934;28;87661;-62
2021/09/16 06:54:49;;;;;;;18.42;12.00;;;18.60;99.90;18.80;100336.00;;;;4974279;28;90278;-62
2021/09/16 06:57:15;;;;;;;19.00;11.77;;;18.60;99.90;18.90;100334.00;;;;4974640;28;88665;-62
2021/09/16 06:59:41;;;;;;;14.73;10.05;;;18.70;99.90;18.90;100339.00;;;;4975327;28;87775;-61
2021/09/16 07:02:07;;;;;;;18.27;11.18;;;18.80;99.90;19.00;100345.00;;;;4973926;28;94703;-62
2021/09/16 07:04:33;;;;;;;17.27;10.43;;;18.80;99.90;19.00;100344.00;;;;4974360;28;93174;-61
2021/09/16 07:07:03;;;;;;;12.10;8.32;;;18.80;99.90;19.10;100352.00;;;;4973469;28;116635;-61
2021/09/16 07:09:32;;;;;;;15.63;9.48;;;18.90;99.90;19.10;100354.00;;;;4974912;28;87867;-61
2021/09/16 07:11:58;;;;;;;14.60;9.48;;;18.90;99.90;19.10;100355.00;;;;4973372;28;86989;-62
2021/09/16 07:14:26;;;;;;;19.20;8.73;;;19.00;99.90;19.10;100354.00;;;;4974295;28;118035;-61
2021/09/16 07:16:53;;;;;;;10.50;6.97;;;19.00;99.90;19.10;100358.00;;;;4976108;28;88185;-62
2021/09/16 07:19:19;;;;;;;10.55;8.35;;;19.00;99.90;19.10;100349.00;;;;4977669;28;91798;-62
2021/09/16 07:21:44;;;;;;;9.18;7.05;;;18.90;99.90;19.10;100347.00;;;;4959280;28;103847;-62
2021/09/16 07:24:12;;;;;;;10.00;6.47;;;19.00;99.90;19.10;100352.00;;;;4977621;28;117451;-63
2021/09/16 07:26:38;;;;;;;10.73;6.65;;;19.10;99.90;19.20;100349.00;;;;4978787;28;87672;-61
2021/09/16 07:29:03;;;;;;;10.80;6.60;;;19.00;99.90;19.20;100360.00;;;;4976896;28;110798;-61
2021/09/16 07:31:30;;;;;;;8.70;5.80;;;19.00;99.90;19.20;100353.00;;;;4977599;28;110185;-62
2021/09/16 07:33:57;;;;;;;10.50;6.43;;;19.00;99.90;19.20;100367.00;;;;4977581;28;117430;-63
2021/09/16 07:36:23;;;;;;;8.60;5.07;;;19.10;99.90;19.20;100363.00;;;;4979279;28;87831;-63
2021/09/16 07:38:49;;;;;;;9.52;5.93;;;19.10;99.90;19.30;100377.00;;;;4976681;28;111423;-62
2021/09/16 07:41:15;;;;;;;9.10;4.90;;;19.10;99.90;19.30;100364.00;;;;4977938;28;108116;-62
2021/09/16 07:43:41;;;;;;;5.38;3.97;;;19.20;99.90;19.30;100374.00;;;;4977706;28;89019;-62
2021/09/16 07:46:07;;;;;;;6.28;4.07;;;19.10;99.90;19.20;100375.00;;;;4978748;28;89258;-62
2021/09/16 07:48:33;;;;;;;7.28;4.28;;;19.10;99.90;19.30;100376.00;;;;4977567;28;109594;-63
2021/09/16 07:50:59;;;;;;;6.28;3.92;;;19.10;99.90;19.30;100376.00;;;;4977953;28;88194;-60
2021/09/16 07:53:27;;;;;;;8.23;3.85;;;19.10;99.90;19.20;100382.00;;;;4977755;28;87988;-61
2021/09/16 07:55:53;;;;;;;4.63;3.58;;;19.10;99.90;19.20;100391.00;;;;4978125;28;88801;-62
2021/09/16 07:58:20;;;;;;;6.70;3.75;;;19.10;99.90;19.20;100393.00;;;;4977617;28;94599;-62
2021/09/16 08:00:46;;;;;;;5.13;3.95;;;19.10;99.90;19.10;100397.00;;;;4978574;28;87084;-63
2021/09/16 08:03:12;;;;;;;4.45;3.33;;;19.00;99.90;19.00;100392.00;;;;4977236;28;88849;-61
2021/09/16 08:05:37;;;;;;;6.88;4.00;;;19.00;99.90;18.90;100391.00;;;;4978691;28;88806;-62
2021/09/16 08:08:03;;;;;;;8.75;3.80;;;18.90;99.90;18.80;100399.00;;;;4977410;28;95343;-62
2021/09/16 08:10:29;;;;;;;5.53;3.47;;;18.80;99.90;18.70;100399.00;;;;4979147;28;87764;-61
2021/09/16 08:12:55;;;;;;;5.97;3.72;;;18.50;99.90;18.60;100405.00;;;;4976908;28;115501;-61
2021/09/16 08:15:21;;;;;;;5.40;3.45;;;18.60;99.90;18.50;100404.00;;;;4977160;28;118662;-60
2021/09/16 08:17:46;;;;;;;4.53;3.10;;;18.50;99.90;18.50;100400.00;;;;4978081;28;87794;-61
2021/09/16 08:20:14;;;;;;;3.60;3.13;;;18.40;99.90;18.50;100395.00;;;;4978131;28;87569;-62
2021/09/16 08:22:40;;;;;;;5.05;3.08;;;18.40;99.90;18.50;100407.00;;;;4977332;28;88355;-61
2021/09/16 08:25:08;;;;;;;3.85;2.75;;;18.40;99.90;18.60;100404.00;;;;4977856;28;88029;-61
2021/09/16 08:27:35;;;;;;;3.38;2.28;;;18.40;99.90;18.70;100405.00;;;;4977520;28;91824;-62
2021/09/16 08:30:07;;;;;;;4.45;2.28;;;18.50;99.90;18.80;100404.00;;;;4977738;28;87574;-60
2021/09/16 08:32:32;;;;;;;3.28;1.95;;;18.60;99.90;18.90;100406.00;;;;4977037;28;89093;-60
2021/09/16 08:34:58;;;;;;;3.00;1.83;;;18.70;99.90;19.00;100409.00;;;;4977607;28;88954;-61
2021/09/16 08:37:24;;;;;;;1.98;1.67;;;18.80;99.90;19.10;100402.00;;;;4977701;28;88022;-60
2021/09/16 08:39:50;;;;;;;1.60;1.50;;;18.90;99.90;19.20;100412.00;;;;4977603;28;88518;-61
2021/09/16 08:42:17;;;;;;;2.10;1.45;;;19.00;99.90;19.20;100406.00;;;;4961980;28;95541;-61
2021/09/16 08:44:43;;;;;;;0.93;0.82;;;19.10;99.90;19.30;100405.00;;;;4977612;28;88338;-61
2021/09/16 08:47:13;;;;;;;1.10;0.80;;;19.10;99.90;19.40;100407.00;;;;4978297;28;87975;-61
2021/09/16 08:49:39;;;;;;;1.13;1.02;;;19.20;99.90;19.40;100407.00;;;;4978220;28;88104;-61
2021/09/16 08:52:05;;;;;;;2.80;1.48;;;19.20;99.90;19.50;100403.00;;;;4977806;28;95207;-61
2021/09/16 08:54:31;;;;;;;1.38;0.80;;;19.30;99.90;19.50;100409.00;;;;4977306;28;88118;-61
2021/09/16 08:57:00;;;;;;;0.82;0.80;;;19.30;99.90;19.60;100412.00;;;;4975128;28;107441;-61
2021/09/16 08:59:25;;;;;;;2.92;1.02;;;19.40;99.90;19.60;100414.00;;;;4973925;28;107902;-61
2021/09/16 09:01:51;;;;;;;1.23;1.10;;;19.40;99.90;19.60;100414.00;;;;4958320;28;117437;-62
2021/09/16 09:04:17;;;;;;;1.17;0.95;;;19.40;99.90;19.60;100424.00;;;;4976897;28;88673;-63
2021/09/16 09:06:43;;;;;;;1.63;1.25;;;19.60;99.90;19.60;100422.00;;;;4977569;28;87977;-61
2021/09/16 09:09:20;;;;;;;1.63;1.10;;;19.40;99.90;19.50;100423.00;;;;4976891;28;87619;-61
2021/09/16 09:12:12;;;;;;;3.33;1.20;;;19.40;99.90;19.50;100421.00;;;;4977453;28;88258;-61
2021/09/16 09:14:45;;;;;;;3.42;1.27;;;19.40;99.90;19.50;100425.00;;;;4977891;28;87157;-61
2021/09/16 09:17:26;;;;;;;1.95;1.02;;;19.40;99.90;19.60;100415.00;;;;4977838;28;87898;-61
2021/09/16 09:19:54;;;;;;;1.85;1.42;;;19.40;99.90;19.60;100426.00;;;;4977598;28;88322;-60
2021/09/16 09:22:33;;;;;;;1.83;1.48;;;19.40;99.90;19.60;100410.00;;;;4956944;28;89606;-62
2021/09/16 09:25:04;;;;;;;2.53;1.80;;;19.50;99.90;19.70;100416.00;;;;4962822;28;100768;-60
2021/09/16 09:27:33;;;;;;;2.20;2.00;;;19.50;99.90;19.70;100418.00;;;;4974818;28;89905;-60
2021/09/16 09:30:11;;;;;;;4.32;1.75;;;19.50;99.90;19.60;100413.00;;;;4977250;28;87820;-60
2021/09/16 09:32:53;;;;;;;1.50;1.40;;;19.50;99.90;19.60;100416.00;;;;4957219;28;88128;-60
2021/09/16 09:35:41;;;;;;;2.78;1.92;;;19.50;99.90;19.50;100414.00;;;;4957256;28;88158;-59
2021/09/16 09:38:19;;;;;;;2.10;1.88;;;19.40;99.90;19.50;100410.00;;;;4973517;28;87937;-61
2021/09/16 09:40:49;;;;;;;2.13;1.65;;;19.40;99.90;19.50;100416.00;;;;4977386;28;87073;-61
2021/09/16 09:43:25;;;;;;;2.45;1.70;;;19.30;99.90;19.40;100419.00;;;;4976324;28;89419;-62
2021/09/16 09:46:13;;;;;;;5.85;2.97;;;19.30;99.90;19.40;100429.00;;;;4976589;28;88500;-61
2021/09/16 09:48:43;;;;;;;3.22;2.15;;;19.30;99.90;19.40;100418.00;;;;4957628;28;88755;-60
2021/09/16 09:51:11;;;;;;;3.67;2.60;;;19.10;99.90;19.40;100419.00;;;;4976430;28;87691;-62
2021/09/16 09:53:41;;;;;;;2.55;2.10;;;19.20;99.90;19.40;100432.00;;;;4976046;28;88999;-61
2021/09/16 09:56:16;;;;;;;1.80;1.70;;;19.20;99.90;19.30;100424.00;;;;4976383;28;89016;-60
2021/09/16 09:58:42;;;;;;;4.38;3.22;;;19.20;99.90;19.30;100421.00;;;;4976841;28;87982;-61
2021/09/16 10:01:33;;;;;;;3.65;2.72;;;19.20;99.90;19.30;100417.00;;;;4976882;28;87693;-62
2021/09/16 10:04:24;;;;;;;3.88;3.08;;;19.20;99.90;19.20;100411.00;;;;4959162;28;88551;-62
2021/09/16 10:06:49;;;;;;;3.90;2.47;;;19.10;99.90;19.30;100418.00;;;;4977503;28;87471;-61
2021/09/16 10:09:15;;;;;;;3.45;3.00;;;19.10;99.90;19.30;100415.00;;;;4975608;28;110570;-61
2021/09/16 10:11:47;;;;;;;7.75;3.40;;;19.20;99.90;19.40;100422.00;;;;4976204;28;87817;-61
2021/09/16 10:14:14;;;;;;;5.88;4.07;;;19.20;99.90;19.50;100425.00;;;;4976054;28;89991;-62
2021/09/16 10:16:41;;;;;;;5.05;3.55;;;19.20;99.90;19.50;100427.00;;;;4976499;28;89030;-61
2021/09/16 10:19:07;;;;;;;5.30;3.53;;;19.30;99.90;19.50;100416.00;;;;4977688;28;87354;-61
2021/09/16 10:21:34;;;;;;;5.90;3.75;;;19.30;99.90;19.60;100416.00;;;;4975601;28;87753;-61
2021/09/16 10:24:01;;;;;;;4.43;3.25;;;19.40;99.90;19.70;100415.00;;;;4957438;28;88806;-62
2021/09/16 10:26:47;;;;;;;6.97;3.75;;;19.40;99.90;19.70;100414.00;;;;4976076;28;87728;-61
2021/09/16 10:29:28;;;;;;;5.75;3.40;;;19.50;99.90;19.70;100429.00;;;;4976539;28;87953;-62
2021/09/16 10:32:06;;;;;;;4.47;3.28;;;19.60;99.90;19.70;100420.00;;;;4976763;28;87046;-62
2021/09/16 10:35:01;;;;;;;4.95;3.58;;;19.60;99.90;19.70;100424.00;;;;4975818;28;89495;-63
2021/09/16 10:37:37;;;;;;;5.60;3.67;;;19.60;99.90;19.50;100428.00;;;;4976325;28;87831;-61
2021/09/16 10:40:25;;;;;;;6.30;4.25;;;19.40;99.90;19.20;100424.00;;;;4974716;28;110720;-62